sensor_id;sensor_type;location;lat;lon;timestamp;P1;durP1;ratioP1;P2;durP2;ratioP2
50739;SDS011;36704;52.524;17.580;2022-10-16T00:01:12;44.85;;;26.27;;
50739;SDS011;36704;52.524;17.580;2022-10-16T00:04:00;44.25;;;26.17;;
50739;SDS011;36704;52.524;17.580;2022-10-16T00:06:47;41.50;;;24.20;;
50739;SDS011;36704;52.524;17.580;2022-10-16T00:09:33;38.80;;;24.95;;
50739;SDS011;36704;52.524;17.580;2022-10-16T00:12:19;42.72;;;25.80;;
50739;SDS011;36704;52.524;17.580;2022-10-16T00:15:05;38.78;;;24.27;;
50739;SDS011;36704;52.524;17.580;2022-10-16T00:17:51;43.42;;;26.02;;
50739;SDS011;36704;52.524;17.580;2022-10-16T00:20:37;43.20;;;26.58;;
50739;SDS011;36704;52.524;17.580;2022-10-16T00:23:41;42.33;;;25.92;;
50739;SDS011;36704;52.524;17.580;2022-10-16T00:26:28;42.20;;;26.33;;
50739;SDS011;36704;52.524;17.580;2022-10-16T00:29:15;38.90;;;23.88;;
50739;SDS011;36704;52.524;17.580;2022-10-16T00:32:01;45.40;;;25.92;;
50739;SDS011;36704;52.524;17.580;2022-10-16T00:34:47;41.15;;;25.00;;
50739;SDS011;36704;52.524;17.580;2022-10-16T00:37:33;44.10;;;26.08;;
50739;SDS011;36704;52.524;17.580;2022-10-16T00:40:18;36.47;;;24.73;;
50739;SDS011;36704;52.524;17.580;2022-10-16T00:43:09;45.20;;;26.65;;
50739;SDS011;36704;52.524;17.580;2022-10-16T00:45:58;45.72;;;26.10;;
50739;SDS011;36704;52.524;17.580;2022-10-16T00:48:49;39.63;;;23.95;;
50739;SDS011;36704;52.524;17.580;2022-10-16T00:51:54;40.78;;;24.60;;
50739;SDS011;36704;52.524;17.580;2022-10-16T00:54:41;45.15;;;24.63;;
50739;SDS011;36704;52.524;17.580;2022-10-16T00:57:26;39.33;;;23.35;;
50739;SDS011;36704;52.524;17.580;2022-10-16T01:00:14;41.03;;;24.15;;
50739;SDS011;36704;52.524;17.580;2022-10-16T01:03:21;42.80;;;24.52;;
50739;SDS011;36704;52.524;17.580;2022-10-16T01:06:17;36.25;;;23.35;;
50739;SDS011;36704;52.524;17.580;2022-10-16T01:09:21;46.88;;;25.17;;
50739;SDS011;36704;52.524;17.580;2022-10-16T01:12:11;42.15;;;24.75;;
50739;SDS011;36704;52.524;17.580;2022-10-16T01:23:56;50.03;;;25.92;;
50739;SDS011;36704;52.524;17.580;2022-10-16T01:30:21;37.65;;;23.75;;
50739;SDS011;36704;52.524;17.580;2022-10-16T01:33:18;38.47;;;23.48;;
50739;SDS011;36704;52.524;17.580;2022-10-16T01:36:11;42.40;;;24.58;;
50739;SDS011;36704;52.524;17.580;2022-10-16T01:39:01;42.35;;;24.30;;
50739;SDS011;36704;52.524;17.580;2022-10-16T01:41:49;44.15;;;25.33;;
50739;SDS011;36704;52.524;17.580;2022-10-16T01:44:39;44.20;;;24.60;;
50739;SDS011;36704;52.524;17.580;2022-10-16T01:47:25;38.67;;;22.90;;
50739;SDS011;36704;52.524;17.580;2022-10-16T01:50:14;40.03;;;22.70;;
50739;SDS011;36704;52.524;17.580;2022-10-16T01:53:01;43.78;;;23.67;;
50739;SDS011;36704;52.524;17.580;2022-10-16T01:55:47;39.13;;;23.73;;
50739;SDS011;36704;52.524;17.580;2022-10-16T01:58:35;35.67;;;22.80;;
50739;SDS011;36704;52.524;17.580;2022-10-16T02:01:24;33.80;;;22.02;;
50739;SDS011;36704;52.524;17.580;2022-10-16T02:04:15;46.20;;;26.85;;
50739;SDS011;36704;52.524;17.580;2022-10-16T02:07:04;45.78;;;26.15;;
50739;SDS011;36704;52.524;17.580;2022-10-16T02:09:51;43.60;;;24.45;;
50739;SDS011;36704;52.524;17.580;2022-10-16T02:12:37;39.17;;;24.75;;
50739;SDS011;36704;52.524;17.580;2022-10-16T02:15:25;40.63;;;24.45;;
50739;SDS011;36704;52.524;17.580;2022-10-16T02:18:10;37.42;;;23.95;;
50739;SDS011;36704;52.524;17.580;2022-10-16T02:21:06;38.30;;;24.27;;
50739;SDS011;36704;52.524;17.580;2022-10-16T02:29:45;36.42;;;22.45;;
50739;SDS011;36704;52.524;17.580;2022-10-16T02:32:36;35.80;;;23.08;;
50739;SDS011;36704;52.524;17.580;2022-10-16T02:35:23;38.05;;;22.52;;
50739;SDS011;36704;52.524;17.580;2022-10-16T02:38:09;35.75;;;23.02;;
50739;SDS011;36704;52.524;17.580;2022-10-16T02:40:56;37.17;;;23.42;;
50739;SDS011;36704;52.524;17.580;2022-10-16T02:43:42;38.45;;;23.73;;
50739;SDS011;36704;52.524;17.580;2022-10-16T02:46:27;35.55;;;22.15;;
50739;SDS011;36704;52.524;17.580;2022-10-16T02:49:13;34.25;;;21.40;;
50739;SDS011;36704;52.524;17.580;2022-10-16T02:51:59;33.22;;;22.13;;
50739;SDS011;36704;52.524;17.580;2022-10-16T02:54:45;33.35;;;21.38;;
50739;SDS011;36704;52.524;17.580;2022-10-16T02:57:30;31.88;;;21.45;;
50739;SDS011;36704;52.524;17.580;2022-10-16T03:00:17;38.20;;;22.90;;
50739;SDS011;36704;52.524;17.580;2022-10-16T03:03:03;35.30;;;22.77;;
50739;SDS011;36704;52.524;17.580;2022-10-16T03:05:49;37.30;;;23.48;;
50739;SDS011;36704;52.524;17.580;2022-10-16T03:08:34;35.67;;;22.33;;
50739;SDS011;36704;52.524;17.580;2022-10-16T03:11:20;33.88;;;22.67;;
50739;SDS011;36704;52.524;17.580;2022-10-16T03:14:06;32.10;;;21.58;;
50739;SDS011;36704;52.524;17.580;2022-10-16T03:16:53;35.60;;;23.20;;
50739;SDS011;36704;52.524;17.580;2022-10-16T03:19:39;39.72;;;25.17;;
50739;SDS011;36704;52.524;17.580;2022-10-16T03:22:25;38.97;;;25.50;;
50739;SDS011;36704;52.524;17.580;2022-10-16T03:25:11;43.13;;;25.80;;
50739;SDS011;36704;52.524;17.580;2022-10-16T03:27:57;38.47;;;24.67;;
50739;SDS011;36704;52.524;17.580;2022-10-16T03:30:43;37.17;;;24.80;;
50739;SDS011;36704;52.524;17.580;2022-10-16T03:33:29;37.08;;;24.13;;
50739;SDS011;36704;52.524;17.580;2022-10-16T03:36:14;41.90;;;25.55;;
50739;SDS011;36704;52.524;17.580;2022-10-16T03:39:00;42.60;;;25.60;;
50739;SDS011;36704;52.524;17.580;2022-10-16T03:41:46;40.10;;;24.38;;
50739;SDS011;36704;52.524;17.580;2022-10-16T03:44:32;38.92;;;24.73;;
50739;SDS011;36704;52.524;17.580;2022-10-16T03:47:17;40.63;;;25.50;;
50739;SDS011;36704;52.524;17.580;2022-10-16T03:50:07;37.67;;;25.80;;
50739;SDS011;36704;52.524;17.580;2022-10-16T03:52:53;40.42;;;25.20;;
50739;SDS011;36704;52.524;17.580;2022-10-16T03:55:41;37.13;;;24.83;;
50739;SDS011;36704;52.524;17.580;2022-10-16T03:58:27;41.13;;;24.80;;
50739;SDS011;36704;52.524;17.580;2022-10-16T04:01:13;42.72;;;25.88;;
50739;SDS011;36704;52.524;17.580;2022-10-16T04:03:59;36.10;;;24.00;;
50739;SDS011;36704;52.524;17.580;2022-10-16T04:06:45;42.95;;;23.98;;
50739;SDS011;36704;52.524;17.580;2022-10-16T04:09:31;38.47;;;24.25;;
50739;SDS011;36704;52.524;17.580;2022-10-16T04:12:17;36.10;;;22.92;;
50739;SDS011;36704;52.524;17.580;2022-10-16T04:15:02;37.92;;;23.35;;
50739;SDS011;36704;52.524;17.580;2022-10-16T04:17:49;35.92;;;22.48;;
50739;SDS011;36704;52.524;17.580;2022-10-16T04:20:35;34.28;;;22.13;;
50739;SDS011;36704;52.524;17.580;2022-10-16T04:23:21;33.03;;;21.98;;
50739;SDS011;36704;52.524;17.580;2022-10-16T04:26:07;34.05;;;22.25;;
50739;SDS011;36704;52.524;17.580;2022-10-16T04:28:53;33.72;;;22.25;;
50739;SDS011;36704;52.524;17.580;2022-10-16T04:31:39;32.35;;;20.98;;
50739;SDS011;36704;52.524;17.580;2022-10-16T04:34:26;30.77;;;21.17;;
50739;SDS011;36704;52.524;17.580;2022-10-16T04:37:11;38.42;;;21.58;;
50739;SDS011;36704;52.524;17.580;2022-10-16T04:39:57;37.70;;;22.48;;
50739;SDS011;36704;52.524;17.580;2022-10-16T04:42:44;30.55;;;21.15;;
50739;SDS011;36704;52.524;17.580;2022-10-16T04:45:29;33.28;;;20.35;;
50739;SDS011;36704;52.524;17.580;2022-10-16T04:48:15;29.48;;;21.20;;
50739;SDS011;36704;52.524;17.580;2022-10-16T04:51:00;32.85;;;21.45;;
50739;SDS011;36704;52.524;17.580;2022-10-16T04:53:46;30.17;;;20.83;;
50739;SDS011;36704;52.524;17.580;2022-10-16T04:56:32;33.97;;;21.13;;
50739;SDS011;36704;52.524;17.580;2022-10-16T04:59:18;34.03;;;22.55;;
50739;SDS011;36704;52.524;17.580;2022-10-16T05:02:04;32.08;;;21.42;;
50739;SDS011;36704;52.524;17.580;2022-10-16T05:04:51;29.60;;;20.38;;
50739;SDS011;36704;52.524;17.580;2022-10-16T05:07:37;29.25;;;20.10;;
50739;SDS011;36704;52.524;17.580;2022-10-16T05:10:23;32.03;;;19.75;;
50739;SDS011;36704;52.524;17.580;2022-10-16T05:13:09;33.15;;;20.25;;
50739;SDS011;36704;52.524;17.580;2022-10-16T05:15:56;30.50;;;19.85;;
50739;SDS011;36704;52.524;17.580;2022-10-16T05:18:43;36.25;;;23.00;;
50739;SDS011;36704;52.524;17.580;2022-10-16T05:21:28;31.20;;;19.95;;
50739;SDS011;36704;52.524;17.580;2022-10-16T05:24:14;31.60;;;21.88;;
50739;SDS011;36704;52.524;17.580;2022-10-16T05:27:01;29.98;;;19.13;;
50739;SDS011;36704;52.524;17.580;2022-10-16T05:29:48;31.42;;;20.58;;
50739;SDS011;36704;52.524;17.580;2022-10-16T05:32:34;32.38;;;20.45;;
50739;SDS011;36704;52.524;17.580;2022-10-16T05:35:20;32.80;;;20.80;;
50739;SDS011;36704;52.524;17.580;2022-10-16T05:38:05;33.40;;;20.58;;
50739;SDS011;36704;52.524;17.580;2022-10-16T05:40:52;29.30;;;19.10;;
50739;SDS011;36704;52.524;17.580;2022-10-16T05:43:38;33.75;;;19.33;;
50739;SDS011;36704;52.524;17.580;2022-10-16T05:46:24;28.95;;;19.83;;
50739;SDS011;36704;52.524;17.580;2022-10-16T05:49:10;28.67;;;20.58;;
50739;SDS011;36704;52.524;17.580;2022-10-16T05:51:56;41.75;;;33.88;;
50739;SDS011;36704;52.524;17.580;2022-10-16T05:54:41;38.50;;;29.77;;
50739;SDS011;36704;52.524;17.580;2022-10-16T05:57:28;32.83;;;23.45;;
50739;SDS011;36704;52.524;17.580;2022-10-16T06:00:14;32.55;;;21.25;;
50739;SDS011;36704;52.524;17.580;2022-10-16T06:03:00;31.60;;;21.20;;
50739;SDS011;36704;52.524;17.580;2022-10-16T06:05:45;32.75;;;19.67;;
50739;SDS011;36704;52.524;17.580;2022-10-16T06:08:31;29.88;;;19.88;;
50739;SDS011;36704;52.524;17.580;2022-10-16T06:11:25;30.35;;;20.67;;
50739;SDS011;36704;52.524;17.580;2022-10-16T06:14:13;29.48;;;20.05;;
50739;SDS011;36704;52.524;17.580;2022-10-16T06:16:59;32.80;;;20.92;;
50739;SDS011;36704;52.524;17.580;2022-10-16T06:19:45;31.17;;;21.25;;
50739;SDS011;36704;52.524;17.580;2022-10-16T06:22:31;33.88;;;21.85;;
50739;SDS011;36704;52.524;17.580;2022-10-16T06:25:17;29.23;;;18.67;;
50739;SDS011;36704;52.524;17.580;2022-10-16T06:28:03;27.35;;;18.75;;
50739;SDS011;36704;52.524;17.580;2022-10-16T06:30:58;28.55;;;18.83;;
50739;SDS011;36704;52.524;17.580;2022-10-16T06:33:51;27.58;;;17.60;;
50739;SDS011;36704;52.524;17.580;2022-10-16T06:36:38;27.15;;;17.25;;
50739;SDS011;36704;52.524;17.580;2022-10-16T06:39:24;25.05;;;16.27;;
50739;SDS011;36704;52.524;17.580;2022-10-16T06:42:10;24.77;;;16.17;;
50739;SDS011;36704;52.524;17.580;2022-10-16T06:44:56;26.02;;;16.50;;
50739;SDS011;36704;52.524;17.580;2022-10-16T06:47:42;25.20;;;16.30;;
50739;SDS011;36704;52.524;17.580;2022-10-16T06:50:28;23.00;;;15.35;;
50739;SDS011;36704;52.524;17.580;2022-10-16T06:53:14;25.20;;;16.35;;
50739;SDS011;36704;52.524;17.580;2022-10-16T06:56:07;20.27;;;13.90;;
50739;SDS011;36704;52.524;17.580;2022-10-16T06:58:54;21.30;;;15.23;;
50739;SDS011;36704;52.524;17.580;2022-10-16T07:01:40;21.85;;;13.70;;
50739;SDS011;36704;52.524;17.580;2022-10-16T07:04:26;21.60;;;15.20;;
50739;SDS011;36704;52.524;17.580;2022-10-16T07:07:12;19.50;;;14.35;;
50739;SDS011;36704;52.524;17.580;2022-10-16T07:09:58;21.05;;;14.88;;
50739;SDS011;36704;52.524;17.580;2022-10-16T07:12:44;22.33;;;16.38;;
50739;SDS011;36704;52.524;17.580;2022-10-16T07:15:31;20.80;;;14.05;;
50739;SDS011;36704;52.524;17.580;2022-10-16T07:18:17;19.63;;;14.23;;
50739;SDS011;36704;52.524;17.580;2022-10-16T07:21:04;20.65;;;15.40;;
50739;SDS011;36704;52.524;17.580;2022-10-16T07:23:51;25.27;;;19.20;;
50739;SDS011;36704;52.524;17.580;2022-10-16T07:26:38;20.00;;;12.98;;
50739;SDS011;36704;52.524;17.580;2022-10-16T07:29:24;18.33;;;11.90;;
50739;SDS011;36704;52.524;17.580;2022-10-16T07:32:10;14.30;;;10.57;;
50739;SDS011;36704;52.524;17.580;2022-10-16T07:34:56;16.45;;;12.57;;
50739;SDS011;36704;52.524;17.580;2022-10-16T07:37:45;14.35;;;11.45;;
50739;SDS011;36704;52.524;17.580;2022-10-16T07:40:31;14.97;;;11.13;;
50739;SDS011;36704;52.524;17.580;2022-10-16T07:43:17;14.38;;;10.00;;
50739;SDS011;36704;52.524;17.580;2022-10-16T07:46:03;13.82;;;10.10;;
50739;SDS011;36704;52.524;17.580;2022-10-16T07:48:51;16.25;;;10.35;;
50739;SDS011;36704;52.524;17.580;2022-10-16T07:51:37;13.18;;;10.02;;
50739;SDS011;36704;52.524;17.580;2022-10-16T07:54:25;17.55;;;9.95;;
50739;SDS011;36704;52.524;17.580;2022-10-16T07:57:10;14.52;;;9.73;;
50739;SDS011;36704;52.524;17.580;2022-10-16T07:59:57;14.00;;;9.98;;
50739;SDS011;36704;52.524;17.580;2022-10-16T08:02:42;15.70;;;10.82;;
50739;SDS011;36704;52.524;17.580;2022-10-16T08:05:29;14.30;;;10.52;;
50739;SDS011;36704;52.524;17.580;2022-10-16T08:08:16;12.15;;;9.43;;
50739;SDS011;36704;52.524;17.580;2022-10-16T08:11:03;13.32;;;10.40;;
50739;SDS011;36704;52.524;17.580;2022-10-16T08:13:50;13.70;;;9.70;;
50739;SDS011;36704;52.524;17.580;2022-10-16T08:16:36;15.40;;;11.05;;
50739;SDS011;36704;52.524;17.580;2022-10-16T08:19:22;13.00;;;9.32;;
50739;SDS011;36704;52.524;17.580;2022-10-16T08:22:08;13.90;;;10.25;;
50739;SDS011;36704;52.524;17.580;2022-10-16T08:24:54;13.63;;;10.57;;
50739;SDS011;36704;52.524;17.580;2022-10-16T08:27:40;14.07;;;10.55;;
50739;SDS011;36704;52.524;17.580;2022-10-16T08:30:25;16.52;;;12.25;;
50739;SDS011;36704;52.524;17.580;2022-10-16T08:33:12;13.52;;;10.88;;
50739;SDS011;36704;52.524;17.580;2022-10-16T08:35:58;15.27;;;10.52;;
50739;SDS011;36704;52.524;17.580;2022-10-16T08:38:47;13.93;;;9.93;;
50739;SDS011;36704;52.524;17.580;2022-10-16T08:41:47;13.95;;;9.90;;
50739;SDS011;36704;52.524;17.580;2022-10-16T08:51:10;13.13;;;9.82;;
50739;SDS011;36704;52.524;17.580;2022-10-16T08:54:45;14.98;;;11.57;;
50739;SDS011;36704;52.524;17.580;2022-10-16T08:57:21;13.70;;;9.77;;
50739;SDS011;36704;52.524;17.580;2022-10-16T09:00:12;13.15;;;9.95;;
50739;SDS011;36704;52.524;17.580;2022-10-16T09:06:10;15.05;;;9.95;;
50739;SDS011;36704;52.524;17.580;2022-10-16T09:09:31;15.48;;;9.82;;
50739;SDS011;36704;52.524;17.580;2022-10-16T09:12:48;12.90;;;9.90;;
50739;SDS011;36704;52.524;17.580;2022-10-16T09:15:47;12.75;;;9.20;;
50739;SDS011;36704;52.524;17.580;2022-10-16T09:22:11;14.77;;;9.23;;
50739;SDS011;36704;52.524;17.580;2022-10-16T09:25:00;13.20;;;9.50;;
50739;SDS011;36704;52.524;17.580;2022-10-16T09:27:47;12.23;;;9.15;;
50739;SDS011;36704;52.524;17.580;2022-10-16T09:30:34;12.70;;;10.05;;
50739;SDS011;36704;52.524;17.580;2022-10-16T09:33:28;13.13;;;9.75;;
50739;SDS011;36704;52.524;17.580;2022-10-16T09:36:19;11.85;;;9.32;;
50739;SDS011;36704;52.524;17.580;2022-10-16T09:39:07;13.90;;;8.75;;
50739;SDS011;36704;52.524;17.580;2022-10-16T09:41:54;13.73;;;10.30;;
50739;SDS011;36704;52.524;17.580;2022-10-16T09:44:40;12.32;;;9.45;;
50739;SDS011;36704;52.524;17.580;2022-10-16T09:47:26;12.02;;;8.80;;
50739;SDS011;36704;52.524;17.580;2022-10-16T09:50:27;11.50;;;8.45;;
50739;SDS011;36704;52.524;17.580;2022-10-16T09:53:13;11.50;;;7.88;;
50739;SDS011;36704;52.524;17.580;2022-10-16T09:56:03;12.20;;;8.07;;
50739;SDS011;36704;52.524;17.580;2022-10-16T09:58:58;10.23;;;7.75;;
50739;SDS011;36704;52.524;17.580;2022-10-16T10:01:47;9.35;;;7.20;;
50739;SDS011;36704;52.524;17.580;2022-10-16T10:04:38;9.15;;;6.88;;
50739;SDS011;36704;52.524;17.580;2022-10-16T10:07:27;9.73;;;7.30;;
50739;SDS011;36704;52.524;17.580;2022-10-16T10:11:01;8.55;;;6.63;;
50739;SDS011;36704;52.524;17.580;2022-10-16T10:13:28;9.15;;;6.80;;
50739;SDS011;36704;52.524;17.580;2022-10-16T10:16:23;8.50;;;6.95;;
50739;SDS011;36704;52.524;17.580;2022-10-16T10:19:17;11.32;;;7.95;;
50739;SDS011;36704;52.524;17.580;2022-10-16T10:31:18;9.07;;;6.75;;
50739;SDS011;36704;52.524;17.580;2022-10-16T10:38:06;7.38;;;5.40;;
50739;SDS011;36704;52.524;17.580;2022-10-16T10:41:09;5.78;;;5.07;;
50739;SDS011;36704;52.524;17.580;2022-10-16T10:50:33;8.95;;;6.35;;
50739;SDS011;36704;52.524;17.580;2022-10-16T10:53:31;11.18;;;6.72;;
50739;SDS011;36704;52.524;17.580;2022-10-16T10:59:55;11.00;;;7.57;;
50739;SDS011;36704;52.524;17.580;2022-10-16T11:06:22;12.40;;;7.03;;
50739;SDS011;36704;52.524;17.580;2022-10-16T11:09:26;14.88;;;7.85;;
50739;SDS011;36704;52.524;17.580;2022-10-16T11:12:18;13.05;;;8.15;;
50739;SDS011;36704;52.524;17.580;2022-10-16T11:17:59;7.43;;;5.82;;
50739;SDS011;36704;52.524;17.580;2022-10-16T11:20:54;8.00;;;6.03;;
50739;SDS011;36704;52.524;17.580;2022-10-16T11:26:32;6.75;;;5.35;;
50739;SDS011;36704;52.524;17.580;2022-10-16T11:29:22;9.27;;;5.55;;
50739;SDS011;36704;52.524;17.580;2022-10-16T11:32:22;6.55;;;5.68;;
50739;SDS011;36704;52.524;17.580;2022-10-16T11:35:12;6.32;;;4.97;;
50739;SDS011;36704;52.524;17.580;2022-10-16T11:38:07;5.95;;;5.13;;
50739;SDS011;36704;52.524;17.580;2022-10-16T11:41:18;7.07;;;5.32;;
50739;SDS011;36704;52.524;17.580;2022-10-16T11:44:27;7.22;;;5.97;;
50739;SDS011;36704;52.524;17.580;2022-10-16T11:47:24;6.50;;;5.30;;
50739;SDS011;36704;52.524;17.580;2022-10-16T11:50:38;7.10;;;5.40;;
50739;SDS011;36704;52.524;17.580;2022-10-16T11:53:39;6.15;;;5.00;;
50739;SDS011;36704;52.524;17.580;2022-10-16T11:56:47;7.63;;;5.07;;
50739;SDS011;36704;52.524;17.580;2022-10-16T11:59:42;6.90;;;5.28;;
50739;SDS011;36704;52.524;17.580;2022-10-16T12:02:46;5.38;;;4.63;;
50739;SDS011;36704;52.524;17.580;2022-10-16T12:08:44;8.25;;;5.50;;
50739;SDS011;36704;52.524;17.580;2022-10-16T12:11:32;6.55;;;5.40;;
50739;SDS011;36704;52.524;17.580;2022-10-16T12:14:22;7.40;;;5.57;;
50739;SDS011;36704;52.524;17.580;2022-10-16T12:17:34;8.20;;;5.97;;
50739;SDS011;36704;52.524;17.580;2022-10-16T12:23:19;6.50;;;5.55;;
50739;SDS011;36704;52.524;17.580;2022-10-16T12:26:06;8.15;;;5.32;;
50739;SDS011;36704;52.524;17.580;2022-10-16T12:28:52;5.78;;;5.13;;
50739;SDS011;36704;52.524;17.580;2022-10-16T12:31:39;7.43;;;5.70;;
50739;SDS011;36704;52.524;17.580;2022-10-16T12:34:42;7.32;;;5.88;;
50739;SDS011;36704;52.524;17.580;2022-10-16T12:37:33;8.50;;;6.75;;
50739;SDS011;36704;52.524;17.580;2022-10-16T12:40:30;7.63;;;5.00;;
50739;SDS011;36704;52.524;17.580;2022-10-16T12:49:05;8.90;;;5.97;;
50739;SDS011;36704;52.524;17.580;2022-10-16T12:51:57;7.85;;;6.30;;
50739;SDS011;36704;52.524;17.580;2022-10-16T12:54:43;8.63;;;6.30;;
50739;SDS011;36704;52.524;17.580;2022-10-16T13:13:24;7.07;;;5.55;;
50739;SDS011;36704;52.524;17.580;2022-10-16T13:22:11;8.20;;;6.63;;
50739;SDS011;36704;52.524;17.580;2022-10-16T13:25:18;10.52;;;7.20;;
50739;SDS011;36704;52.524;17.580;2022-10-16T13:28:10;6.68;;;5.20;;
50739;SDS011;36704;52.524;17.580;2022-10-16T13:30:58;5.93;;;4.25;;
50739;SDS011;36704;52.524;17.580;2022-10-16T13:33:48;6.97;;;4.82;;
50739;SDS011;36704;52.524;17.580;2022-10-16T13:36:45;5.93;;;4.55;;
50739;SDS011;36704;52.524;17.580;2022-10-16T13:39:32;5.18;;;3.70;;
50739;SDS011;36704;52.524;17.580;2022-10-16T13:42:21;9.90;;;4.68;;
50739;SDS011;36704;52.524;17.580;2022-10-16T13:45:21;5.55;;;3.88;;
50739;SDS011;36704;52.524;17.580;2022-10-16T13:48:10;4.38;;;3.47;;
50739;SDS011;36704;52.524;17.580;2022-10-16T13:51:06;6.68;;;5.05;;
50739;SDS011;36704;52.524;17.580;2022-10-16T13:54:02;53.92;;;48.50;;
50739;SDS011;36704;52.524;17.580;2022-10-16T13:56:48;78.18;;;42.40;;
50739;SDS011;36704;52.524;17.580;2022-10-16T13:59:53;67.68;;;58.30;;
50739;SDS011;36704;52.524;17.580;2022-10-16T14:02:40;84.60;;;38.83;;
50739;SDS011;36704;52.524;17.580;2022-10-16T14:05:26;52.00;;;25.27;;
50739;SDS011;36704;52.524;17.580;2022-10-16T14:08:11;26.95;;;14.25;;
50739;SDS011;36704;52.524;17.580;2022-10-16T14:11:01;40.50;;;22.98;;
50739;SDS011;36704;52.524;17.580;2022-10-16T14:13:46;42.95;;;25.25;;
50739;SDS011;36704;52.524;17.580;2022-10-16T14:16:33;45.05;;;27.63;;
50739;SDS011;36704;52.524;17.580;2022-10-16T14:22:29;14.23;;;9.60;;
50739;SDS011;36704;52.524;17.580;2022-10-16T14:28:14;8.27;;;5.07;;
50739;SDS011;36704;52.524;17.580;2022-10-16T14:34:05;9.80;;;4.80;;
50739;SDS011;36704;52.524;17.580;2022-10-16T14:37:15;6.35;;;4.03;;
50739;SDS011;36704;52.524;17.580;2022-10-16T14:40:15;6.97;;;5.82;;
50739;SDS011;36704;52.524;17.580;2022-10-16T14:43:02;7.40;;;4.35;;
50739;SDS011;36704;52.524;17.580;2022-10-16T14:45:53;7.00;;;4.40;;
50739;SDS011;36704;52.524;17.580;2022-10-16T14:48:40;6.35;;;4.55;;
50739;SDS011;36704;52.524;17.580;2022-10-16T14:51:27;5.10;;;3.85;;
50739;SDS011;36704;52.524;17.580;2022-10-16T14:54:15;18.42;;;9.63;;
50739;SDS011;36704;52.524;17.580;2022-10-16T14:57:01;99.97;;;39.45;;
50739;SDS011;36704;52.524;17.580;2022-10-16T14:59:47;149.13;;;48.80;;
50739;SDS011;36704;52.524;17.580;2022-10-16T15:02:34;209.60;;;68.10;;
50739;SDS011;36704;52.524;17.580;2022-10-16T15:05:26;220.90;;;79.07;;
50739;SDS011;36704;52.524;17.580;2022-10-16T15:08:12;197.60;;;70.53;;
50739;SDS011;36704;52.524;17.580;2022-10-16T15:10:58;278.75;;;109.57;;
50739;SDS011;36704;52.524;17.580;2022-10-16T15:13:45;78.22;;;33.85;;
50739;SDS011;36704;52.524;17.580;2022-10-16T15:16:31;40.42;;;21.90;;
50739;SDS011;36704;52.524;17.580;2022-10-16T15:19:17;27.60;;;16.45;;
50739;SDS011;36704;52.524;17.580;2022-10-16T15:22:03;16.08;;;9.05;;
50739;SDS011;36704;52.524;17.580;2022-10-16T15:24:49;22.52;;;13.70;;
50739;SDS011;36704;52.524;17.580;2022-10-16T15:27:35;32.20;;;18.30;;
50739;SDS011;36704;52.524;17.580;2022-10-16T15:30:25;25.80;;;15.68;;
50739;SDS011;36704;52.524;17.580;2022-10-16T15:33:22;18.08;;;9.68;;
50739;SDS011;36704;52.524;17.580;2022-10-16T15:36:09;16.45;;;9.60;;
50739;SDS011;36704;52.524;17.580;2022-10-16T15:38:55;17.33;;;10.27;;
50739;SDS011;36704;52.524;17.580;2022-10-16T15:41:42;27.48;;;14.13;;
50739;SDS011;36704;52.524;17.580;2022-10-16T15:44:29;24.42;;;14.10;;
50739;SDS011;36704;52.524;17.580;2022-10-16T15:47:16;23.10;;;14.02;;
50739;SDS011;36704;52.524;17.580;2022-10-16T15:50:01;14.80;;;9.55;;
50739;SDS011;36704;52.524;17.580;2022-10-16T15:52:48;19.75;;;11.43;;
50739;SDS011;36704;52.524;17.580;2022-10-16T15:55:35;18.67;;;11.60;;
50739;SDS011;36704;52.524;17.580;2022-10-16T15:58:23;14.93;;;10.07;;
50739;SDS011;36704;52.524;17.580;2022-10-16T16:01:09;13.88;;;9.57;;
50739;SDS011;36704;52.524;17.580;2022-10-16T16:03:56;19.35;;;12.10;;
50739;SDS011;36704;52.524;17.580;2022-10-16T16:06:42;17.85;;;11.10;;
50739;SDS011;36704;52.524;17.580;2022-10-16T16:09:30;18.67;;;11.90;;
50739;SDS011;36704;52.524;17.580;2022-10-16T16:12:15;23.23;;;13.77;;
50739;SDS011;36704;52.524;17.580;2022-10-16T16:15:02;24.40;;;14.38;;
50739;SDS011;36704;52.524;17.580;2022-10-16T16:17:50;23.98;;;14.50;;
50739;SDS011;36704;52.524;17.580;2022-10-16T16:20:36;21.85;;;14.85;;
50739;SDS011;36704;52.524;17.580;2022-10-16T16:23:22;36.60;;;19.83;;
50739;SDS011;36704;52.524;17.580;2022-10-16T16:26:12;53.15;;;26.13;;
50739;SDS011;36704;52.524;17.580;2022-10-16T16:29:00;63.28;;;34.22;;
50739;SDS011;36704;52.524;17.580;2022-10-16T16:31:46;73.32;;;41.15;;
50739;SDS011;36704;52.524;17.580;2022-10-16T16:34:32;57.25;;;32.40;;
50739;SDS011;36704;52.524;17.580;2022-10-16T16:37:17;34.17;;;21.23;;
50739;SDS011;36704;52.524;17.580;2022-10-16T16:40:03;44.92;;;28.80;;
50739;SDS011;36704;52.524;17.580;2022-10-16T16:42:49;87.45;;;53.58;;
50739;SDS011;36704;52.524;17.580;2022-10-16T16:45:35;54.42;;;33.20;;
50739;SDS011;36704;52.524;17.580;2022-10-16T16:48:21;37.80;;;22.45;;
50739;SDS011;36704;52.524;17.580;2022-10-16T16:51:08;32.97;;;20.45;;
50739;SDS011;36704;52.524;17.580;2022-10-16T16:54:02;35.85;;;20.38;;
50739;SDS011;36704;52.524;17.580;2022-10-16T16:56:52;36.13;;;19.85;;
50739;SDS011;36704;52.524;17.580;2022-10-16T16:59:38;41.03;;;23.42;;
50739;SDS011;36704;52.524;17.580;2022-10-16T17:02:23;51.70;;;29.48;;
50739;SDS011;36704;52.524;17.580;2022-10-16T17:05:09;89.85;;;41.58;;
50739;SDS011;36704;52.524;17.580;2022-10-16T17:07:54;86.07;;;39.38;;
50739;SDS011;36704;52.524;17.580;2022-10-16T17:10:43;52.72;;;26.92;;
50739;SDS011;36704;52.524;17.580;2022-10-16T17:13:30;38.95;;;21.45;;
50739;SDS011;36704;52.524;17.580;2022-10-16T17:16:20;53.60;;;26.45;;
50739;SDS011;36704;52.524;17.580;2022-10-16T17:19:08;73.18;;;38.42;;
50739;SDS011;36704;52.524;17.580;2022-10-16T17:21:56;40.85;;;23.30;;
50739;SDS011;36704;52.524;17.580;2022-10-16T17:24:42;34.95;;;21.00;;
50739;SDS011;36704;52.524;17.580;2022-10-16T17:27:28;44.97;;;26.13;;
50739;SDS011;36704;52.524;17.580;2022-10-16T17:30:13;140.48;;;55.35;;
50739;SDS011;36704;52.524;17.580;2022-10-16T17:33:00;199.48;;;76.43;;
50739;SDS011;36704;52.524;17.580;2022-10-16T17:35:46;122.10;;;52.28;;
50739;SDS011;36704;52.524;17.580;2022-10-16T17:38:32;165.98;;;70.40;;
50739;SDS011;36704;52.524;17.580;2022-10-16T17:41:19;162.20;;;62.85;;
50739;SDS011;36704;52.524;17.580;2022-10-16T17:44:07;126.00;;;52.72;;
50739;SDS011;36704;52.524;17.580;2022-10-16T17:46:53;65.88;;;35.30;;
50739;SDS011;36704;52.524;17.580;2022-10-16T17:49:38;71.43;;;38.53;;
50739;SDS011;36704;52.524;17.580;2022-10-16T17:52:24;74.30;;;39.30;;
50739;SDS011;36704;52.524;17.580;2022-10-16T17:55:11;90.47;;;44.72;;
50739;SDS011;36704;52.524;17.580;2022-10-16T17:57:56;75.05;;;38.53;;
50739;SDS011;36704;52.524;17.580;2022-10-16T18:00:42;60.72;;;36.88;;
50739;SDS011;36704;52.524;17.580;2022-10-16T18:03:28;40.80;;;27.63;;
50739;SDS011;36704;52.524;17.580;2022-10-16T18:06:14;33.35;;;25.40;;